createdAt,value
2022-07-29T00:00:36.001Z,22.04
2022-07-29T00:02:08.517Z,22.07
2022-07-29T00:03:40.850Z,22.06
2022-07-29T00:05:14.745Z,22.02
2022-07-29T00:06:46.952Z,21.95
2022-07-29T00:08:19.725Z,21.90
2022-07-29T00:09:52.751Z,21.84
2022-07-29T00:11:25.119Z,21.82
2022-07-29T00:12:57.396Z,21.82
2022-07-29T00:14:29.895Z,21.86
2022-07-29T00:16:04.481Z,21.92
2022-07-29T00:17:37.377Z,21.90
2022-07-29T00:19:09.569Z,21.86
2022-07-29T00:20:43.410Z,21.90
2022-07-29T00:22:15.678Z,21.94
2022-07-29T00:23:47.764Z,21.94
2022-07-29T00:25:20.066Z,21.97
2022-07-29T00:26:52.507Z,22.00
2022-07-29T00:28:24.788Z,22.03
2022-07-29T00:29:56.906Z,22.13
2022-07-29T00:31:29.079Z,22.21
2022-07-29T00:33:01.858Z,22.24
2022-07-29T00:34:52.649Z,22.26
2022-07-29T00:36:24.824Z,22.27
2022-07-29T00:37:57.037Z,22.26
2022-07-29T00:39:29.539Z,22.28
2022-07-29T00:41:01.847Z,22.28
2022-07-29T00:42:47.840Z,22.29
2022-07-29T00:44:20.112Z,22.27
2022-07-29T00:45:52.562Z,22.27
2022-07-29T00:47:24.775Z,22.23
2022-07-29T00:48:56.984Z,22.18
2022-07-29T00:50:29.275Z,22.15
2022-07-29T00:52:02.491Z,22.10
2022-07-29T00:53:35.328Z,22.07
2022-07-29T00:55:09.207Z,22.06
2022-07-29T00:56:41.400Z,22.02
2022-07-29T00:58:14.952Z,21.97
2022-07-29T00:59:48.260Z,21.93
2022-07-29T01:01:20.432Z,21.89
2022-07-29T01:02:52.750Z,21.85
2022-07-29T01:04:25.365Z,21.83
2022-07-29T01:05:57.823Z,21.80
2022-07-29T01:07:31.022Z,21.77
2022-07-29T01:09:04.364Z,21.77
2022-07-29T01:10:37.937Z,21.77
2022-07-29T01:12:14.044Z,21.71
2022-07-29T01:13:47.065Z,21.72
2022-07-29T01:15:19.399Z,21.69
2022-07-29T01:16:51.799Z,21.70
2022-07-29T01:18:35.089Z,21.70
2022-07-29T01:20:07.441Z,21.70
2022-07-29T01:21:39.662Z,21.66
2022-07-29T01:23:26.938Z,21.62
2022-07-29T01:25:16.343Z,21.62
2022-07-29T01:26:48.553Z,21.63
2022-07-29T01:28:33.495Z,21.69
2022-07-29T01:30:06.188Z,21.67
2022-07-29T01:31:53.778Z,21.65
2022-07-29T01:33:52.084Z,21.65
2022-07-29T01:35:29.830Z,21.64
2022-07-29T01:37:13.311Z,21.68
2022-07-29T01:38:49.654Z,21.68
2022-07-29T01:40:25.137Z,21.67
2022-07-29T01:42:00.703Z,21.63
2022-07-29T01:43:36.778Z,21.59
2022-07-29T01:45:12.560Z,21.58
2022-07-29T01:46:47.865Z,21.58
2022-07-29T01:48:24.595Z,21.56
2022-07-29T01:49:57.880Z,21.53
2022-07-29T01:51:32.647Z,21.49
2022-07-29T01:53:09.880Z,21.43
2022-07-29T01:54:46.822Z,21.36
2022-07-29T01:56:20.956Z,21.33
2022-07-29T01:57:53.622Z,21.36
2022-07-29T01:59:26.537Z,21.36
2022-07-29T02:01:00.966Z,21.35
2022-07-29T02:02:34.087Z,21.34
2022-07-29T02:04:08.143Z,21.32
2022-07-29T02:05:42.161Z,21.33
2022-07-29T02:07:15.418Z,21.41
2022-07-29T02:08:48.853Z,21.45
2022-07-29T02:10:25.753Z,21.49
2022-07-29T02:11:59.767Z,21.50
2022-07-29T02:13:32.586Z,21.50
2022-07-29T02:15:06.782Z,21.48
2022-07-29T02:16:40.302Z,21.45
2022-07-29T02:18:15.351Z,21.41
2022-07-29T02:19:48.588Z,21.39
2022-07-29T02:21:22.506Z,21.37
2022-07-29T02:22:55.771Z,21.36
2022-07-29T02:24:29.554Z,21.36
2022-07-29T02:26:02.178Z,21.37
2022-07-29T02:27:35.684Z,21.38
2022-07-29T02:29:10.965Z,21.36
2022-07-29T02:30:43.887Z,21.35
2022-07-29T02:32:17.027Z,21.37
2022-07-29T02:33:49.680Z,21.40
2022-07-29T02:35:22.952Z,21.39
2022-07-29T02:36:56.465Z,21.39
2022-07-29T02:38:48.363Z,21.41
2022-07-29T02:40:20.511Z,21.38
2022-07-29T02:42:00.616Z,21.37
2022-07-29T02:43:35.373Z,21.36
2022-07-29T02:45:07.784Z,21.36
2022-07-29T02:46:43.923Z,21.42
2022-07-29T02:48:17.627Z,21.42
2022-07-29T02:49:53.590Z,21.47
2022-07-29T02:51:41.466Z,21.46
2022-07-29T02:53:19.607Z,21.45
2022-07-29T02:54:51.724Z,21.50
2022-07-29T02:56:28.844Z,21.49
2022-07-29T02:58:02.475Z,21.49
2022-07-29T02:59:37.551Z,21.49
2022-07-29T03:01:19.370Z,21.48
2022-07-29T03:02:54.783Z,21.47
2022-07-29T03:04:29.494Z,21.44
2022-07-29T03:06:03.446Z,21.44
2022-07-29T03:07:36.242Z,21.48
2022-07-29T03:09:12.933Z,21.49
2022-07-29T03:10:46.714Z,21.49
2022-07-29T03:12:19.275Z,21.47
2022-07-29T03:13:51.914Z,21.42
2022-07-29T03:15:24.777Z,21.39
2022-07-29T03:16:57.262Z,21.34
2022-07-29T03:18:29.736Z,21.29
2022-07-29T03:20:02.557Z,21.25
2022-07-29T03:21:35.192Z,21.20
2022-07-29T03:23:07.627Z,21.18
2022-07-29T03:24:40.308Z,21.15
2022-07-29T03:26:13.296Z,21.12
2022-07-29T03:27:45.538Z,21.07
2022-07-29T03:29:17.673Z,21.05
2022-07-29T03:30:52.465Z,21.04
2022-07-29T03:32:25.342Z,21.01
2022-07-29T03:33:58.562Z,21.01
2022-07-29T03:35:32.656Z,21.04
2022-07-29T03:37:07.080Z,21.03
2022-07-29T03:38:40.776Z,21.04
2022-07-29T03:40:17.219Z,21.05
2022-07-29T03:41:50.753Z,21.06
2022-07-29T03:43:27.779Z,21.06
2022-07-29T03:45:01.123Z,21.10
2022-07-29T03:46:34.854Z,21.11
2022-07-29T03:48:09.508Z,21.14
2022-07-29T03:49:42.229Z,21.23
2022-07-29T03:51:14.593Z,21.36
2022-07-29T03:52:46.800Z,21.55
2022-07-29T03:54:19.652Z,21.65
2022-07-29T03:55:53.866Z,21.64
2022-07-29T03:57:28.602Z,21.63
2022-07-29T03:59:01.486Z,21.59
2022-07-29T04:00:34.728Z,21.58
2022-07-29T04:02:09.596Z,21.57
2022-07-29T04:03:41.913Z,21.58
2022-07-29T04:05:14.490Z,21.59
2022-07-29T04:06:48.317Z,21.60
2022-07-29T04:08:21.128Z,21.61
2022-07-29T04:09:53.312Z,21.63
2022-07-29T04:11:25.433Z,21.65
2022-07-29T04:12:57.643Z,21.68
2022-07-29T04:14:30.126Z,21.71
2022-07-29T04:16:02.453Z,21.74
2022-07-29T04:17:34.727Z,21.76
2022-07-29T04:19:06.929Z,21.78
2022-07-29T04:20:39.415Z,21.82
2022-07-29T04:22:11.597Z,21.85
2022-07-29T04:23:52.968Z,21.88
2022-07-29T04:25:26.204Z,21.92
2022-07-29T04:26:58.934Z,21.99
2022-07-29T04:28:31.107Z,22.04
2022-07-29T04:30:03.531Z,22.12
2022-07-29T04:31:35.979Z,22.18
2022-07-29T04:33:09.046Z,22.25
2022-07-29T04:34:41.299Z,22.33
2022-07-29T04:36:28.397Z,22.55
2022-07-29T04:38:01.924Z,23.26
2022-07-29T04:39:34.381Z,24.01
2022-07-29T04:41:07.984Z,24.72
2022-07-29T04:42:43.972Z,25.37
2022-07-29T04:44:19.713Z,26.15
2022-07-29T04:45:52.479Z,26.68
2022-07-29T04:47:26.998Z,27.16
2022-07-29T04:48:59.219Z,27.60
2022-07-29T04:50:31.443Z,27.92
2022-07-29T04:52:04.013Z,28.29
2022-07-29T04:53:36.228Z,28.58
2022-07-29T04:55:08.533Z,28.69
2022-07-29T04:56:40.711Z,28.74
2022-07-29T04:58:13.209Z,28.93
2022-07-29T04:59:45.376Z,29.17
2022-07-29T05:01:17.602Z,29.22
2022-07-29T05:02:50.381Z,29.44
2022-07-29T05:04:24.091Z,29.81
2022-07-29T05:05:56.350Z,30.04
2022-07-29T05:07:28.490Z,30.28
2022-07-29T05:09:00.638Z,30.54
2022-07-29T05:10:33.689Z,30.73
2022-07-29T05:12:06.195Z,30.86
2022-07-29T05:13:46.346Z,31.03
2022-07-29T05:15:19.826Z,31.34
2022-07-29T05:16:57.738Z,31.20
2022-07-29T05:18:30.569Z,31.04
2022-07-29T05:20:02.723Z,31.07
2022-07-29T05:21:36.116Z,31.42
2022-07-29T05:23:08.742Z,31.73
2022-07-29T05:24:41.846Z,31.89
2022-07-29T05:26:16.555Z,32.08
2022-07-29T05:27:48.787Z,32.42
2022-07-29T05:29:43.054Z,32.57
2022-07-29T05:31:15.926Z,32.86
2022-07-29T05:32:48.313Z,32.88
2022-07-29T05:34:20.933Z,32.72
2022-07-29T05:35:56.243Z,32.65
2022-07-29T05:37:32.207Z,32.52
2022-07-29T05:39:04.463Z,32.19
2022-07-29T05:40:36.718Z,31.81
2022-07-29T05:42:09.970Z,31.47
2022-07-29T05:43:42.166Z,31.34
2022-07-29T05:45:14.275Z,31.49
2022-07-29T05:46:46.567Z,31.66
2022-07-29T05:48:21.059Z,31.95
2022-07-29T05:49:53.441Z,32.06
2022-07-29T05:51:25.606Z,32.28
2022-07-29T05:52:57.874Z,32.45
2022-07-29T05:54:30.322Z,32.53
2022-07-29T05:56:08.505Z,32.86
2022-07-29T05:57:40.633Z,33.13
2022-07-29T05:59:17.963Z,33.55
2022-07-29T06:00:51.057Z,34.15
2022-07-29T06:02:23.274Z,34.31
2022-07-29T06:03:55.779Z,34.27
2022-07-29T06:05:28.161Z,34.24
2022-07-29T06:07:00.656Z,34.42
2022-07-29T06:08:34.738Z,34.21
2022-07-29T06:10:06.946Z,34.13
2022-07-29T06:11:39.119Z,33.93
2022-07-29T06:13:11.583Z,34.16
2022-07-29T06:14:43.824Z,34.67
2022-07-29T06:16:16.069Z,34.67
2022-07-29T06:18:02.567Z,34.71
2022-07-29T06:19:36.185Z,34.92
2022-07-29T06:21:09.732Z,35.09
2022-07-29T06:22:42.147Z,35.12
2022-07-29T06:24:15.210Z,35.26
2022-07-29T06:25:48.002Z,35.39
2022-07-29T06:27:20.177Z,35.41
2022-07-29T06:28:52.319Z,35.55
2022-07-29T06:30:24.837Z,35.48
2022-07-29T06:31:57.565Z,35.33
2022-07-29T06:33:30.236Z,35.48
2022-07-29T06:35:32.931Z,35.65
2022-07-29T06:36:54.666Z,35.62
2022-07-29T06:38:30.829Z,35.40
2022-07-29T06:40:25.335Z,34.85
2022-07-29T06:41:57.512Z,34.92
2022-07-29T06:43:35.139Z,35.14
2022-07-29T06:45:09.377Z,34.69
2022-07-29T06:46:42.040Z,34.35
2022-07-29T06:48:14.238Z,34.25
2022-07-29T06:49:46.733Z,34.15
2022-07-29T06:51:21.737Z,34.17
2022-07-29T06:52:56.053Z,34.17
2022-07-29T06:54:28.310Z,33.94
2022-07-29T06:56:01.577Z,33.64
2022-07-29T06:57:34.036Z,33.58
2022-07-29T06:59:06.722Z,33.79
2022-07-29T07:00:39.120Z,33.94
2022-07-29T07:02:11.668Z,34.02
2022-07-29T07:03:43.869Z,34.10
2022-07-29T07:05:16.311Z,34.53
2022-07-29T07:06:48.487Z,34.27
2022-07-29T07:08:21.969Z,33.90
2022-07-29T07:09:54.101Z,33.92
2022-07-29T07:11:26.390Z,34.19
2022-07-29T07:12:58.599Z,34.30
2022-07-29T07:14:31.090Z,33.91
2022-07-29T07:16:03.635Z,33.28
2022-07-29T07:17:35.886Z,33.03
2022-07-29T07:19:08.040Z,33.03
2022-07-29T07:20:40.665Z,33.19
2022-07-29T07:22:12.875Z,33.40
2022-07-29T07:23:45.044Z,33.54
2022-07-29T07:25:18.442Z,33.67
2022-07-29T07:26:51.043Z,33.95
2022-07-29T07:28:24.479Z,34.31
2022-07-29T07:29:57.786Z,33.89
2022-07-29T07:31:30.021Z,33.50
2022-07-29T07:33:02.625Z,33.74
2022-07-29T07:34:34.935Z,33.93
2022-07-29T07:36:07.325Z,33.89
2022-07-29T07:37:41.560Z,34.25
2022-07-29T07:39:14.311Z,34.54
2022-07-29T07:40:47.535Z,34.74
2022-07-29T07:42:20.214Z,35.06
2022-07-29T07:43:52.362Z,35.20
2022-07-29T07:45:25.237Z,34.76
2022-07-29T07:46:57.501Z,33.93
2022-07-29T07:48:37.165Z,33.60
2022-07-29T07:50:13.805Z,33.47
2022-07-29T07:51:51.192Z,33.68
2022-07-29T07:53:23.500Z,34.07
2022-07-29T07:54:55.728Z,34.56
2022-07-29T07:56:30.704Z,35.13
2022-07-29T07:58:07.396Z,35.13
2022-07-29T07:59:39.873Z,35.09
2022-07-29T08:01:14.893Z,35.12
2022-07-29T08:02:47.252Z,35.16
2022-07-29T08:04:23.592Z,35.42
2022-07-29T08:05:59.543Z,35.50
2022-07-29T08:07:32.410Z,35.47
2022-07-29T08:09:27.761Z,35.77
2022-07-29T08:10:57.757Z,35.64
2022-07-29T08:12:29.984Z,35.20
2022-07-29T08:14:02.613Z,34.95
2022-07-29T08:15:35.016Z,34.67
2022-07-29T08:17:07.662Z,34.42
2022-07-29T08:18:41.195Z,34.49
2022-07-29T08:20:13.523Z,34.36
2022-07-29T08:21:45.647Z,34.16
2022-07-29T08:23:20.145Z,34.12
2022-07-29T08:24:56.353Z,33.95
2022-07-29T08:26:28.643Z,33.82
2022-07-29T08:28:00.788Z,33.52
2022-07-29T08:29:33.477Z,33.31
2022-07-29T08:31:11.470Z,33.11
2022-07-29T08:32:53.614Z,33.22
2022-07-29T08:34:27.814Z,33.41
2022-07-29T08:36:00.649Z,33.63
2022-07-29T08:37:32.831Z,33.84
2022-07-29T08:39:05.061Z,34.09
2022-07-29T08:40:37.334Z,34.45
2022-07-29T08:42:10.665Z,34.43
2022-07-29T08:43:42.914Z,34.23
2022-07-29T08:45:15.275Z,34.08
2022-07-29T08:46:47.464Z,34.39
2022-07-29T08:48:21.578Z,34.88
2022-07-29T08:49:53.753Z,35.13
2022-07-29T08:51:26.563Z,35.26
2022-07-29T08:53:00.071Z,35.17
2022-07-29T08:54:33.160Z,35.65
2022-07-29T08:56:05.742Z,36.17
2022-07-29T08:57:39.685Z,36.70
2022-07-29T08:59:25.701Z,37.36
2022-07-29T09:00:58.436Z,37.86
2022-07-29T09:02:36.958Z,38.07
2022-07-29T09:04:11.879Z,37.76
2022-07-29T09:05:47.957Z,37.30
2022-07-29T09:07:20.929Z,36.99
2022-07-29T09:08:53.082Z,36.46
2022-07-29T09:10:25.269Z,36.16
2022-07-29T09:11:57.786Z,35.98
2022-07-29T09:13:30.546Z,35.88
2022-07-29T09:15:02.856Z,35.62
2022-07-29T09:16:53.833Z,35.44
2022-07-29T09:18:40.408Z,35.30
2022-07-29T09:20:14.324Z,35.16
2022-07-29T09:22:03.526Z,35.06
2022-07-29T09:23:36.182Z,35.17
2022-07-29T09:25:08.509Z,35.27
2022-07-29T09:26:42.316Z,35.33
2022-07-29T09:28:15.530Z,35.29
2022-07-29T09:29:48.121Z,35.36
2022-07-29T09:31:27.506Z,35.52
2022-07-29T09:33:03.902Z,35.65
2022-07-29T09:34:36.233Z,35.50
2022-07-29T09:36:11.910Z,35.13
2022-07-29T09:37:45.089Z,34.92
2022-07-29T09:39:28.265Z,34.67
2022-07-29T09:41:06.007Z,34.55
2022-07-29T09:42:38.867Z,34.48
2022-07-29T09:44:12.801Z,34.58
2022-07-29T09:45:45.294Z,34.67
2022-07-29T09:47:19.150Z,34.79
2022-07-29T09:49:10.251Z,35.01
2022-07-29T09:50:44.974Z,35.19
2022-07-29T09:52:17.794Z,35.30
2022-07-29T09:53:51.429Z,35.34
2022-07-29T09:55:26.308Z,35.49
2022-07-29T09:56:59.000Z,35.58
2022-07-29T09:58:31.750Z,35.53
2022-07-29T10:00:09.188Z,35.58
2022-07-29T10:01:44.484Z,35.66
2022-07-29T10:03:17.547Z,35.69
2022-07-29T10:04:50.219Z,35.80
2022-07-29T10:06:22.419Z,35.78
2022-07-29T10:07:57.351Z,35.72
2022-07-29T10:09:30.033Z,35.78
2022-07-29T10:11:12.413Z,35.90
2022-07-29T10:12:52.592Z,35.94
2022-07-29T10:14:24.917Z,35.97
2022-07-29T10:15:57.178Z,36.00
2022-07-29T10:17:32.581Z,36.06
2022-07-29T10:19:04.735Z,35.90
2022-07-29T10:20:37.000Z,35.70
2022-07-29T10:22:10.714Z,35.35
2022-07-29T10:23:47.014Z,34.97
2022-07-29T10:25:19.861Z,34.69
2022-07-29T10:26:52.623Z,34.47
2022-07-29T10:28:25.888Z,34.25
2022-07-29T10:29:59.191Z,34.05
2022-07-29T10:31:39.907Z,33.97
2022-07-29T10:33:15.805Z,33.78
2022-07-29T10:35:06.837Z,33.59
2022-07-29T10:36:46.549Z,33.64
2022-07-29T10:38:18.771Z,33.66
2022-07-29T10:40:29.998Z,33.65
2022-07-29T10:42:14.829Z,33.57
2022-07-29T10:43:52.644Z,33.61
2022-07-29T10:45:26.867Z,33.57
2022-07-29T10:47:00.135Z,33.61
2022-07-29T10:48:32.748Z,33.68
2022-07-29T10:50:05.886Z,33.64
2022-07-29T10:52:00.805Z,33.60
2022-07-29T10:53:52.499Z,33.67
2022-07-29T10:55:34.515Z,33.86
2022-07-29T10:57:53.026Z,34.03
2022-07-29T10:59:21.527Z,34.28
2022-07-29T11:02:52.344Z,34.24
2022-07-29T11:04:43.554Z,34.21
2022-07-29T11:06:15.874Z,34.22
2022-07-29T11:08:06.427Z,34.28
2022-07-29T11:09:39.745Z,34.44
2022-07-29T11:13:13.430Z,34.67
2022-07-29T11:15:00.283Z,34.70
2022-07-29T11:16:52.571Z,34.81
2022-07-29T11:18:24.732Z,34.88
2022-07-29T11:20:16.246Z,34.88
2022-07-29T11:21:54.124Z,34.89
2022-07-29T11:23:39.804Z,34.97
2022-07-29T11:25:16.854Z,35.10
2022-07-29T11:27:09.505Z,35.40
2022-07-29T11:28:51.051Z,35.65
2022-07-29T11:30:45.637Z,35.63
2022-07-29T11:32:23.160Z,35.58
2022-07-29T11:33:56.950Z,35.65
2022-07-29T11:35:38.406Z,35.66
2022-07-29T11:37:12.621Z,35.66
2022-07-29T11:38:45.194Z,35.72
2022-07-29T11:40:18.410Z,35.61
2022-07-29T11:41:51.662Z,35.47
2022-07-29T11:43:46.136Z,35.36
2022-07-29T11:47:12.933Z,35.30
2022-07-29T11:48:47.193Z,35.33
2022-07-29T11:50:35.155Z,35.40
2022-07-29T11:52:10.914Z,35.31
2022-07-29T11:53:48.185Z,35.09
2022-07-29T11:55:32.359Z,35.08
2022-07-29T11:57:08.250Z,35.25
2022-07-29T11:58:41.112Z,35.36
2022-07-29T12:00:21.455Z,35.36
2022-07-29T12:04:03.065Z,35.05
2022-07-29T12:05:38.090Z,35.00
2022-07-29T12:07:34.606Z,35.13
2022-07-29T12:09:08.836Z,35.33
2022-07-29T12:10:47.851Z,35.36
2022-07-29T12:12:21.310Z,35.35
2022-07-29T12:13:56.815Z,35.38
2022-07-29T12:15:46.386Z,35.41
2022-07-29T12:17:32.734Z,35.51
2022-07-29T12:19:05.691Z,35.31
2022-07-29T12:20:38.086Z,35.09
2022-07-29T12:22:10.664Z,35.12
2022-07-29T12:23:53.170Z,35.30
2022-07-29T12:25:33.750Z,35.33
2022-07-29T12:27:06.335Z,35.53
2022-07-29T12:28:39.747Z,35.70
2022-07-29T12:30:17.763Z,35.77
2022-07-29T12:31:55.052Z,35.92
2022-07-29T12:33:30.664Z,35.90
2022-07-29T12:35:07.060Z,35.72
2022-07-29T12:36:39.700Z,35.46
2022-07-29T12:38:12.713Z,35.23
2022-07-29T12:39:45.100Z,35.17
2022-07-29T12:41:17.345Z,35.00
2022-07-29T12:43:10.302Z,34.91
2022-07-29T12:44:49.753Z,34.82
2022-07-29T12:46:24.253Z,34.75
2022-07-29T12:47:56.739Z,34.70
2022-07-29T12:49:28.920Z,34.68
2022-07-29T12:51:02.381Z,34.56
2022-07-29T12:52:35.110Z,34.52
2022-07-29T12:54:09.124Z,34.54
2022-07-29T12:55:42.581Z,34.53
2022-07-29T12:57:20.145Z,34.56
2022-07-29T12:58:52.806Z,34.67
2022-07-29T13:00:25.579Z,34.75
2022-07-29T13:02:00.696Z,34.79
2022-07-29T13:03:56.882Z,34.90
2022-07-29T13:05:49.438Z,35.10
2022-07-29T13:07:55.449Z,35.31
2022-07-29T13:09:20.580Z,35.25
2022-07-29T13:10:53.131Z,35.18
2022-07-29T13:12:25.388Z,35.04
2022-07-29T13:14:05.694Z,35.03
2022-07-29T13:15:40.438Z,35.14
2022-07-29T13:17:16.801Z,35.24
2022-07-29T13:18:49.112Z,35.38
2022-07-29T13:20:25.446Z,35.50
2022-07-29T13:21:57.800Z,35.69
2022-07-29T13:23:30.780Z,35.88
2022-07-29T13:25:03.997Z,36.06
2022-07-29T13:26:40.686Z,36.19
2022-07-29T13:28:12.902Z,36.35
2022-07-29T13:29:45.700Z,36.43
2022-07-29T13:31:18.058Z,36.49
2022-07-29T13:32:50.735Z,36.57
2022-07-29T13:34:25.259Z,36.65
2022-07-29T13:36:00.396Z,36.51
2022-07-29T13:37:35.281Z,36.54
2022-07-29T13:39:07.487Z,36.60
2022-07-29T13:40:39.686Z,36.64
2022-07-29T13:42:14.310Z,36.52
2022-07-29T13:43:46.669Z,36.39
2022-07-29T13:45:22.345Z,36.32
2022-07-29T13:46:54.577Z,36.31
2022-07-29T13:48:27.069Z,36.32
2022-07-29T13:49:59.342Z,36.39
2022-07-29T13:51:31.516Z,36.40
2022-07-29T13:53:03.680Z,36.39
2022-07-29T13:54:42.802Z,36.37
2022-07-29T13:56:15.084Z,36.23
2022-07-29T13:57:47.213Z,36.11
2022-07-29T13:59:19.652Z,35.96
2022-07-29T14:00:52.239Z,35.82
2022-07-29T14:02:25.648Z,35.68
2022-07-29T14:03:58.390Z,35.55
2022-07-29T14:05:30.777Z,35.39
2022-07-29T14:07:03.789Z,35.12
2022-07-29T14:08:36.245Z,34.85
2022-07-29T14:10:08.977Z,34.67
2022-07-29T14:11:41.367Z,34.54
2022-07-29T14:13:24.432Z,34.33
2022-07-29T14:14:57.821Z,34.00
2022-07-29T14:16:30.174Z,33.88
2022-07-29T14:18:02.422Z,33.83
2022-07-29T14:19:39.205Z,33.86
2022-07-29T14:21:11.665Z,33.84
2022-07-29T14:22:45.126Z,33.85
2022-07-29T14:24:21.667Z,33.79
2022-07-29T14:25:57.938Z,33.73
2022-07-29T14:27:37.381Z,33.69
2022-07-29T14:29:10.731Z,33.59
2022-07-29T14:30:42.967Z,33.47
2022-07-29T14:32:16.078Z,33.38
2022-07-29T14:33:49.254Z,33.34
2022-07-29T14:35:21.628Z,33.22
2022-07-29T14:36:56.558Z,33.16
2022-07-29T14:38:29.023Z,33.13
2022-07-29T14:40:04.163Z,33.14
2022-07-29T14:41:36.430Z,33.11
2022-07-29T14:43:08.752Z,33.07
2022-07-29T14:44:42.569Z,33.05
2022-07-29T14:46:15.109Z,33.08
2022-07-29T14:47:47.338Z,33.07
2022-07-29T14:49:19.589Z,33.05
2022-07-29T14:50:52.142Z,33.04
2022-07-29T14:52:24.333Z,33.03
2022-07-29T14:53:57.385Z,33.05
2022-07-29T14:55:30.495Z,33.06
2022-07-29T14:57:03.039Z,32.99
2022-07-29T14:58:35.249Z,32.89
2022-07-29T15:00:08.535Z,32.81
2022-07-29T15:01:40.808Z,32.70
2022-07-29T15:03:13.589Z,32.57
2022-07-29T15:04:56.207Z,32.37
2022-07-29T15:06:28.449Z,32.16
2022-07-29T15:08:00.660Z,31.93
2022-07-29T15:09:33.313Z,31.71
2022-07-29T15:11:12.366Z,31.41
2022-07-29T15:12:44.735Z,31.17
2022-07-29T15:14:16.930Z,30.97
2022-07-29T15:15:50.306Z,30.65
2022-07-29T15:17:22.520Z,30.32
2022-07-29T15:18:57.726Z,29.84
2022-07-29T15:20:33.531Z,29.42
2022-07-29T15:22:06.465Z,29.11
2022-07-29T15:23:39.673Z,28.84
2022-07-29T15:25:11.958Z,28.55
2022-07-29T15:26:44.218Z,28.27
2022-07-29T15:28:17.084Z,28.02
2022-07-29T15:29:49.338Z,27.83
2022-07-29T15:31:21.513Z,27.68
2022-07-29T15:32:55.921Z,27.52
2022-07-29T15:34:30.357Z,27.41
2022-07-29T15:36:02.653Z,27.24
2022-07-29T15:37:48.532Z,27.07
2022-07-29T15:39:22.063Z,26.85
2022-07-29T15:40:54.511Z,26.73
2022-07-29T15:42:26.725Z,26.46
2022-07-29T15:43:58.889Z,26.30
2022-07-29T15:45:38.387Z,26.09
2022-07-29T15:47:12.882Z,25.97
2022-07-29T15:48:48.691Z,25.92
2022-07-29T15:50:21.027Z,25.86
2022-07-29T15:51:56.923Z,25.78
2022-07-29T15:53:32.112Z,25.67
2022-07-29T15:55:05.618Z,25.70
2022-07-29T15:56:37.780Z,25.68
2022-07-29T15:58:09.976Z,25.56
2022-07-29T15:59:42.512Z,25.45
2022-07-29T16:01:14.860Z,25.39
2022-07-29T16:02:47.091Z,25.31
2022-07-29T16:04:19.534Z,25.18
2022-07-29T16:05:52.151Z,24.38
2022-07-29T16:07:24.475Z,23.37
2022-07-29T16:09:03.698Z,22.50
2022-07-29T16:10:35.913Z,22.17
2022-07-29T16:12:14.895Z,21.92
2022-07-29T16:13:47.777Z,21.62
2022-07-29T16:15:20.226Z,21.47
2022-07-29T16:16:52.563Z,21.34
2022-07-29T16:18:30.400Z,21.30
2022-07-29T16:20:02.974Z,21.26
2022-07-29T16:21:35.986Z,21.19
2022-07-29T16:23:12.342Z,21.12
2022-07-29T16:24:44.814Z,21.20
2022-07-29T16:26:17.649Z,21.10
2022-07-29T16:27:51.967Z,21.08
2022-07-29T16:29:24.327Z,21.10
2022-07-29T16:30:57.366Z,21.13
2022-07-29T16:32:30.818Z,21.18
2022-07-29T16:34:03.069Z,21.26
2022-07-29T16:35:39.101Z,21.36
2022-07-29T16:37:12.622Z,21.46
2022-07-29T16:38:47.339Z,21.49
2022-07-29T16:40:19.571Z,21.55
2022-07-29T16:41:51.738Z,21.62
2022-07-29T16:43:24.152Z,21.59
2022-07-29T16:44:56.286Z,21.67
2022-07-29T16:46:29.327Z,21.78
2022-07-29T16:48:02.816Z,21.87
2022-07-29T16:49:36.361Z,21.98
2022-07-29T16:51:08.593Z,22.03
2022-07-29T16:52:40.946Z,22.13
2022-07-29T16:54:13.157Z,22.22
2022-07-29T16:55:45.816Z,22.27
2022-07-29T16:57:18.150Z,22.34
2022-07-29T16:58:50.318Z,22.41
2022-07-29T17:00:23.793Z,22.50
2022-07-29T17:01:56.600Z,22.55
2022-07-29T17:03:28.874Z,22.63
2022-07-29T17:05:00.963Z,22.70
2022-07-29T17:06:37.187Z,22.80
2022-07-29T17:08:09.684Z,22.95
2022-07-29T17:09:42.532Z,23.07
2022-07-29T17:11:15.663Z,23.21
2022-07-29T17:12:47.858Z,23.31
2022-07-29T17:15:55.455Z,23.49
2022-07-29T17:17:39.394Z,23.56
2022-07-29T17:19:22.458Z,23.64
2022-07-29T17:20:54.592Z,23.70
2022-07-29T17:22:27.090Z,23.77
2022-07-29T17:23:59.501Z,23.83
2022-07-29T17:25:32.038Z,23.87
2022-07-29T17:27:04.246Z,23.91
2022-07-29T17:28:36.424Z,23.97
2022-07-29T17:30:08.797Z,24.07
2022-07-29T17:31:41.528Z,24.19
2022-07-29T17:33:13.774Z,24.29
2022-07-29T17:34:45.991Z,24.38
2022-07-29T17:36:24.268Z,24.47
2022-07-29T17:37:56.843Z,24.53
2022-07-29T17:39:29.064Z,24.55
2022-07-29T17:41:01.353Z,24.58
2022-07-29T17:42:40.054Z,24.62
2022-07-29T17:44:12.647Z,24.65
2022-07-29T17:45:50.165Z,24.68
2022-07-29T17:47:23.004Z,24.69
2022-07-29T17:48:56.224Z,24.70
2022-07-29T17:50:28.729Z,24.71
2022-07-29T17:52:01.255Z,24.72
2022-07-29T17:53:33.525Z,24.71
2022-07-29T17:55:06.235Z,24.73
2022-07-29T17:56:38.877Z,24.72
2022-07-29T17:58:11.396Z,24.72
2022-07-29T17:59:43.563Z,24.73
2022-07-29T18:01:16.281Z,24.72
2022-07-29T18:02:49.342Z,24.72
2022-07-29T18:04:23.606Z,24.71
2022-07-29T18:05:55.938Z,24.71
2022-07-29T18:07:28.098Z,24.70
2022-07-29T18:09:00.804Z,24.68
2022-07-29T18:10:33.197Z,24.66
2022-07-29T18:12:07.831Z,24.64
2022-07-29T18:13:40.114Z,24.61
2022-07-29T18:15:12.646Z,24.59
2022-07-29T18:16:46.908Z,24.55
2022-07-29T18:18:19.294Z,24.52
2022-07-29T18:19:52.923Z,24.45
2022-07-29T18:21:42.691Z,24.38
2022-07-29T18:23:17.627Z,24.31
2022-07-29T18:24:49.841Z,24.24
2022-07-29T18:26:22.053Z,24.18
2022-07-29T18:28:03.066Z,24.09
2022-07-29T18:29:35.248Z,24.02
2022-07-29T18:31:07.513Z,23.96
2022-07-29T18:32:39.754Z,23.91
2022-07-29T18:34:12.297Z,23.83
2022-07-29T18:35:44.806Z,23.75
2022-07-29T18:37:17.166Z,23.68
2022-07-29T18:38:49.349Z,23.60
2022-07-29T18:40:25.371Z,23.54
2022-07-29T18:41:57.781Z,23.48
2022-07-29T18:43:32.845Z,23.42
2022-07-29T18:45:07.296Z,23.36
2022-07-29T18:46:47.388Z,23.29
2022-07-29T18:48:20.270Z,23.23
2022-07-29T18:49:52.585Z,23.18
2022-07-29T18:51:24.738Z,23.13
2022-07-29T18:52:58.880Z,23.06
2022-07-29T18:54:31.633Z,23.01
2022-07-29T18:56:04.029Z,22.95
2022-07-29T18:57:55.485Z,22.89
2022-07-29T18:59:30.496Z,22.83
2022-07-29T19:01:02.629Z,22.78
2022-07-29T19:02:35.921Z,22.71
2022-07-29T19:04:08.343Z,22.67
2022-07-29T19:05:40.926Z,22.62
2022-07-29T19:07:13.082Z,22.58
2022-07-29T19:08:45.542Z,22.55
2022-07-29T19:10:17.884Z,22.60
2022-07-29T19:11:54.241Z,22.71
2022-07-29T19:13:28.208Z,22.80
2022-07-29T19:15:00.548Z,22.90
2022-07-29T19:16:32.849Z,22.95
2022-07-29T19:18:05.483Z,22.98
2022-07-29T19:19:37.665Z,23.00
2022-07-29T19:21:09.885Z,23.00
2022-07-29T19:22:42.061Z,22.98
2022-07-29T19:24:15.779Z,22.99
2022-07-29T19:25:53.619Z,22.96
2022-07-29T19:27:26.479Z,22.94
2022-07-29T19:28:58.612Z,22.94
2022-07-29T19:30:31.182Z,22.93
2022-07-29T19:32:03.354Z,22.91
2022-07-29T19:33:37.963Z,22.89
2022-07-29T19:35:25.512Z,22.88
2022-07-29T19:36:58.161Z,22.85
2022-07-29T19:38:32.584Z,22.83
2022-07-29T19:40:05.542Z,22.81
2022-07-29T19:41:38.170Z,22.79
2022-07-29T19:43:49.747Z,22.74
2022-07-29T19:45:02.943Z,22.69
2022-07-29T19:46:35.995Z,22.66
2022-07-29T19:48:08.229Z,22.63
2022-07-29T19:49:40.802Z,22.63
2022-07-29T19:51:12.970Z,22.61
2022-07-29T19:52:47.840Z,22.61
2022-07-29T19:54:19.968Z,22.59
2022-07-29T19:55:52.577Z,22.59
2022-07-29T19:57:24.736Z,22.61
2022-07-29T19:58:58.637Z,22.60
2022-07-29T20:00:31.514Z,22.61
2022-07-29T20:02:04.121Z,22.63
2022-07-29T20:03:36.645Z,22.67
2022-07-29T20:05:09.786Z,22.68
2022-07-29T20:06:41.879Z,22.68
2022-07-29T20:08:14.377Z,22.69
2022-07-29T20:09:47.061Z,22.68
2022-07-29T20:11:19.879Z,22.71
2022-07-29T20:12:53.766Z,22.69
2022-07-29T20:14:27.825Z,22.70
2022-07-29T20:16:00.561Z,22.69
2022-07-29T20:17:33.064Z,22.68
2022-07-29T20:19:11.987Z,22.67
2022-07-29T20:20:44.709Z,22.68
2022-07-29T20:22:21.294Z,22.70
2022-07-29T20:23:54.038Z,22.72
2022-07-29T20:25:26.220Z,22.74
2022-07-29T20:26:59.076Z,22.78
2022-07-29T20:28:31.461Z,22.79
2022-07-29T20:30:03.955Z,22.83